Pagrindinis puslapis
METAR-TAF:

METAR-TAF

Oro uostai :

Gazipaşa, Turkija

platuma: 36-17-56N, ilguma: 32-18-00E, Aukštis: 15 m

Dabartinis oras

Ataskaita buvo paskelbta 29 minutes, ne 12:50 UTC
Vėjas 8 kt iš Vakarų/Pietvakarių, svyruoja nuo Pietų/Pietvakarių ir Vakarų
Temperatūra 24°C
Drėgmė 65%
Slėgis 1009 hPa
Matomumas 10 km arba daugiau
nėra debesų žemiau 1500 m ir nėra kamuolinių lietaus debesų

METAR: LTFG 121250Z 24008KT 200V270 CAVOK 24/17 Q1009

Laikas: 16:19 (13:19 UTC)

Prognozė

Ataskaita buvo paskelbta 2 valandos ir 39 minutes, ne 10:40 UTC
Prognozė galioja nuo 12 metu 12 UTC su 12 metu 21 UTC
Vėjas 8 kt iš Pietvakarių
Matomumas 10 km arba daugiau
nėra debesų žemiau 1500 m ir nėra kamuolinių lietaus debesų

TAF: LTFG 121040Z 1212/1221 23008KT CAVOK

Orai ataskaitas ir orų prognozės (METAR, TAF).

turimą stotys yra geltonos ir raudonos taškus žemėlapyje.

Perkelti pele per norėdami pamatyti stoties vardą.

Tada spustelėkite, norėdami matyti oro stebėjimo ir prognozės.

Norėdami pakeisti žemėlapį: spustelėkite ant žalios mygtukų su juodo kryžiaus žemyn,; žalią mygtuką su brūkšneliu, jei norite nutolinti; arba žalių rodyklių gretimoms žemėlapius.


METAR-TAF: